createdAt,value
2023-03-16T00:01:08.622Z,-0.91
2023-03-16T00:03:39.700Z,-0.95
2023-03-16T00:06:10.729Z,-0.98
2023-03-16T00:08:43.615Z,-1.00
2023-03-16T00:11:14.061Z,-1.02
2023-03-16T00:13:44.563Z,-1.05
2023-03-16T00:16:16.855Z,-1.07
2023-03-16T00:18:47.681Z,-1.09
2023-03-16T00:21:18.181Z,-1.10
2023-03-16T00:23:48.722Z,-1.11
2023-03-16T00:26:19.413Z,-1.13
2023-03-16T00:28:49.928Z,-1.13
2023-03-16T00:31:24.966Z,-1.13
2023-03-16T00:33:55.838Z,-1.13
2023-03-16T00:36:26.460Z,-1.13
2023-03-16T00:38:57.299Z,-1.13
2023-03-16T00:41:28.147Z,-1.11
2023-03-16T00:43:58.623Z,-1.07
2023-03-16T00:46:29.304Z,-1.03
2023-03-16T00:48:59.944Z,-1.00
2023-03-16T00:51:33.687Z,-0.98
2023-03-16T00:54:05.587Z,-0.95
2023-03-16T00:56:36.261Z,-0.88
2023-03-16T00:59:06.895Z,-0.83
2023-03-16T01:01:37.497Z,-0.79
2023-03-16T01:04:09.388Z,-0.77
2023-03-16T01:06:40.097Z,-0.72
2023-03-16T01:09:10.839Z,-0.69
2023-03-16T01:11:43.182Z,-0.66
2023-03-16T01:14:13.957Z,-0.65
2023-03-16T01:16:46.069Z,-0.65
2023-03-16T01:19:17.149Z,-0.62
2023-03-16T01:21:47.554Z,-0.59
2023-03-16T01:24:19.614Z,-0.56
2023-03-16T01:26:50.265Z,-0.53
2023-03-16T01:29:20.820Z,-0.50
2023-03-16T01:31:51.853Z,-0.48
2023-03-16T01:34:21.529Z,-0.48
2023-03-16T01:36:52.797Z,-0.48
2023-03-16T01:39:30.774Z,-0.47
2023-03-16T01:42:01.445Z,-0.47
2023-03-16T01:44:45.699Z,-0.48
2023-03-16T01:47:16.365Z,-0.47
2023-03-16T01:49:48.315Z,-0.47
2023-03-16T01:52:23.389Z,-0.48
2023-03-16T01:54:58.220Z,-0.46
2023-03-16T01:57:36.871Z,-0.45
2023-03-16T02:00:14.720Z,-0.44
2023-03-16T02:02:48.594Z,-0.41
2023-03-16T02:05:31.970Z,-0.39
2023-03-16T02:08:05.192Z,-0.39
2023-03-16T02:10:37.024Z,-0.37
2023-03-16T02:13:07.960Z,-0.36
2023-03-16T02:15:39.027Z,-0.34
2023-03-16T02:18:10.966Z,-0.34
2023-03-16T02:20:48.835Z,-0.33
2023-03-16T02:23:22.170Z,-0.30
2023-03-16T02:25:58.873Z,-0.29
2023-03-16T02:28:37.005Z,-0.28
2023-03-16T02:31:10.808Z,-0.28
2023-03-16T02:33:43.621Z,-0.27
2023-03-16T02:36:16.243Z,-0.27
2023-03-16T02:38:47.420Z,-0.28
2023-03-16T02:41:22.248Z,-0.27
2023-03-16T02:44:07.109Z,-0.24
2023-03-16T02:46:43.509Z,-0.20
2023-03-16T02:49:19.953Z,-0.15
2023-03-16T02:51:50.885Z,-0.10
2023-03-16T02:54:25.637Z,-0.10
2023-03-16T02:56:56.398Z,-0.12
2023-03-16T02:59:27.399Z,-0.14
2023-03-16T03:01:58.300Z,-0.16
2023-03-16T03:04:29.027Z,-0.18
2023-03-16T03:07:04.608Z,-0.21
2023-03-16T03:09:37.147Z,-0.22
2023-03-16T03:12:08.889Z,-0.20
2023-03-16T03:14:40.323Z,-0.12
2023-03-16T03:17:10.467Z,-0.09
2023-03-16T03:19:41.329Z,-0.08
2023-03-16T03:22:12.666Z,-0.08
2023-03-16T03:24:41.709Z,-0.07
2023-03-16T03:27:12.217Z,-0.08
2023-03-16T03:29:44.648Z,-0.09
2023-03-16T03:32:15.589Z,-0.09
2023-03-16T03:34:46.077Z,-0.08
2023-03-16T03:37:17.049Z,-0.06
2023-03-16T03:39:48.442Z,-0.02
2023-03-16T03:42:19.521Z,0.01
2023-03-16T03:44:50.080Z,0.03
2023-03-16T03:47:21.652Z,0.06
2023-03-16T03:49:52.206Z,0.07
2023-03-16T03:52:23.984Z,0.10
2023-03-16T03:54:54.501Z,0.12
2023-03-16T03:57:25.145Z,0.12
2023-03-16T03:59:55.977Z,0.13
2023-03-16T04:02:45.558Z,0.14
2023-03-16T04:05:27.514Z,0.13
2023-03-16T04:07:59.313Z,0.11
2023-03-16T04:10:31.652Z,0.09
2023-03-16T04:13:02.888Z,0.08
2023-03-16T04:15:38.376Z,0.06
2023-03-16T04:18:19.382Z,0.03
2023-03-16T04:20:49.960Z,-0.01
2023-03-16T04:23:22.787Z,-0.04
2023-03-16T04:25:52.043Z,-0.06
2023-03-16T04:28:26.360Z,-0.09
2023-03-16T04:30:56.986Z,-0.11
2023-03-16T04:33:33.183Z,-0.10
2023-03-16T04:36:03.955Z,-0.08
2023-03-16T04:38:36.172Z,-0.04
2023-03-16T04:41:05.701Z,0.01
2023-03-16T04:43:43.309Z,0.05
2023-03-16T04:46:21.457Z,0.01
2023-03-16T04:48:52.235Z,0.01
2023-03-16T04:51:22.764Z,-0.03
2023-03-16T04:54:02.400Z,-0.06
2023-03-16T04:56:37.422Z,-0.08
2023-03-16T04:59:12.056Z,-0.07
2023-03-16T05:01:50.148Z,-0.07
2023-03-16T05:04:22.059Z,-0.06
2023-03-16T05:06:54.514Z,-0.05
2023-03-16T05:09:28.358Z,-0.04
2023-03-16T05:11:59.613Z,0.02
2023-03-16T05:14:35.975Z,0.04
2023-03-16T05:17:32.932Z,0.06
2023-03-16T05:20:08.011Z,0.09
2023-03-16T05:22:38.934Z,0.10
2023-03-16T05:25:29.836Z,0.13
2023-03-16T05:28:02.561Z,0.13
2023-03-16T05:30:53.488Z,0.12
2023-03-16T05:33:27.878Z,0.10
2023-03-16T05:36:04.910Z,0.07
2023-03-16T05:38:36.851Z,0.05
2023-03-16T05:41:08.770Z,0.04
2023-03-16T05:43:51.622Z,0.04
2023-03-16T05:46:25.376Z,0.04
2023-03-16T05:48:56.270Z,0.05
2023-03-16T05:51:27.402Z,0.06
2023-03-16T05:53:58.439Z,0.07
2023-03-16T05:56:45.802Z,0.11
2023-03-16T05:59:17.895Z,0.12
2023-03-16T06:01:51.968Z,0.13
2023-03-16T06:04:23.991Z,0.15
2023-03-16T06:06:54.630Z,0.18
2023-03-16T06:09:28.060Z,0.23
2023-03-16T06:11:58.655Z,0.28
2023-03-16T06:14:30.301Z,0.31
2023-03-16T06:17:01.657Z,0.36
2023-03-16T06:19:32.829Z,0.41
2023-03-16T06:22:04.576Z,0.47
2023-03-16T06:24:33.983Z,0.53
2023-03-16T06:27:04.819Z,0.57
2023-03-16T06:29:40.169Z,0.60
2023-03-16T06:32:11.320Z,0.63
2023-03-16T06:34:43.153Z,0.69
2023-03-16T06:37:14.266Z,0.77
2023-03-16T06:39:47.678Z,0.85
2023-03-16T06:42:18.292Z,0.93
2023-03-16T06:44:48.931Z,1.01
2023-03-16T06:47:19.877Z,1.10
2023-03-16T06:49:51.838Z,1.20
2023-03-16T06:52:30.117Z,1.31
2023-03-16T06:55:03.455Z,1.47
2023-03-16T06:57:34.482Z,1.60
2023-03-16T07:00:07.306Z,1.71
2023-03-16T07:02:41.155Z,1.82
2023-03-16T07:05:14.129Z,1.91
2023-03-16T07:07:45.542Z,2.05
2023-03-16T07:10:18.343Z,2.19
2023-03-16T07:12:50.392Z,2.34
2023-03-16T07:15:21.916Z,2.45
2023-03-16T07:17:53.694Z,2.55
2023-03-16T07:20:27.046Z,2.64
2023-03-16T07:22:57.892Z,2.73
2023-03-16T07:25:28.869Z,2.80
2023-03-16T07:27:59.420Z,2.88
2023-03-16T07:30:33.341Z,3.07
2023-03-16T07:33:05.350Z,3.29
2023-03-16T07:35:36.642Z,3.32
2023-03-16T07:38:07.371Z,3.30
2023-03-16T07:40:42.146Z,3.28
2023-03-16T07:43:17.896Z,3.29
2023-03-16T07:45:54.557Z,3.30
2023-03-16T07:48:26.035Z,3.32
2023-03-16T07:51:03.405Z,3.36
2023-03-16T07:53:34.350Z,3.42
2023-03-16T07:56:17.840Z,3.47
2023-03-16T07:58:50.240Z,3.54
2023-03-16T08:01:22.564Z,3.60
2023-03-16T08:03:53.579Z,3.68
2023-03-16T08:06:25.531Z,3.76
2023-03-16T08:08:56.254Z,3.82
2023-03-16T08:11:32.460Z,3.89
2023-03-16T08:14:05.972Z,3.97
2023-03-16T08:16:56.841Z,4.05
2023-03-16T08:19:28.618Z,4.19
2023-03-16T08:22:02.051Z,4.34
2023-03-16T08:24:38.561Z,4.49
2023-03-16T08:27:11.497Z,4.61
2023-03-16T08:29:43.519Z,4.73
2023-03-16T08:32:17.148Z,4.83
2023-03-16T08:34:48.325Z,4.90
2023-03-16T08:37:19.031Z,4.97
2023-03-16T08:39:51.523Z,5.06
2023-03-16T08:42:22.353Z,5.16
2023-03-16T08:45:00.912Z,5.35
2023-03-16T08:47:32.789Z,5.72
2023-03-16T08:50:06.132Z,6.14
2023-03-16T08:52:37.586Z,6.50
2023-03-16T08:55:10.990Z,6.82
2023-03-16T08:57:45.161Z,7.23
2023-03-16T09:00:17.996Z,7.76
2023-03-16T09:02:48.695Z,7.98
2023-03-16T09:05:19.410Z,7.92
2023-03-16T09:07:50.397Z,7.84
2023-03-16T09:10:23.133Z,7.82
2023-03-16T09:12:54.063Z,7.97
2023-03-16T09:15:24.865Z,8.10
2023-03-16T09:17:57.476Z,8.27
2023-03-16T09:20:30.053Z,8.52
2023-03-16T09:23:01.378Z,8.76
2023-03-16T09:25:32.632Z,8.87
2023-03-16T09:28:01.959Z,8.98
2023-03-16T09:30:32.993Z,9.16
2023-03-16T09:33:04.290Z,9.32
2023-03-16T09:35:35.024Z,9.58
2023-03-16T09:38:06.477Z,9.75
2023-03-16T09:40:39.577Z,9.86
2023-03-16T09:43:24.987Z,9.75
2023-03-16T09:46:05.527Z,9.49
2023-03-16T09:48:38.754Z,9.19
2023-03-16T09:51:18.659Z,9.12
2023-03-16T09:53:50.740Z,9.05
2023-03-16T09:56:29.192Z,9.01
2023-03-16T09:59:01.114Z,9.04
2023-03-16T10:01:42.085Z,9.04
2023-03-16T10:04:26.618Z,9.00
2023-03-16T10:07:06.641Z,8.97
2023-03-16T10:09:44.118Z,8.86
2023-03-16T10:12:17.358Z,8.84
2023-03-16T10:14:55.735Z,8.87
2023-03-16T10:17:31.827Z,8.92
2023-03-16T10:20:09.169Z,8.95
2023-03-16T10:22:52.811Z,8.98
2023-03-16T10:25:29.104Z,8.96
2023-03-16T10:27:59.935Z,9.01
2023-03-16T10:33:32.246Z,9.08
2023-03-16T10:36:11.644Z,9.12
2023-03-16T10:38:47.040Z,9.12
2023-03-16T10:41:28.764Z,9.10
2023-03-16T10:44:06.279Z,9.09
2023-03-16T10:46:43.162Z,9.08
2023-03-16T10:49:27.201Z,9.11
2023-03-16T10:52:01.401Z,9.14
2023-03-16T10:54:35.541Z,9.18
2023-03-16T10:57:22.684Z,9.19
2023-03-16T10:59:54.331Z,9.22
2023-03-16T11:02:31.818Z,9.27
2023-03-16T11:05:12.898Z,9.34
2023-03-16T11:07:50.977Z,9.43
2023-03-16T11:10:36.110Z,9.57
2023-03-16T11:13:15.992Z,9.69
2023-03-16T11:15:53.104Z,9.77
2023-03-16T11:18:31.660Z,9.88
2023-03-16T11:21:06.497Z,10.03
2023-03-16T11:23:41.501Z,10.23
2023-03-16T11:26:21.217Z,10.38
2023-03-16T11:29:01.696Z,10.58
2023-03-16T11:31:42.850Z,10.74
2023-03-16T11:34:19.443Z,10.85
2023-03-16T11:36:56.128Z,11.03
2023-03-16T11:39:37.704Z,11.32
2023-03-16T11:42:21.347Z,11.56
2023-03-16T11:44:57.444Z,11.81
2023-03-16T11:47:59.062Z,11.99
2023-03-16T11:50:32.691Z,12.16
2023-03-16T11:53:12.407Z,12.21
2023-03-16T11:55:55.393Z,12.34
2023-03-16T11:58:39.974Z,12.43
2023-03-16T12:01:19.695Z,12.53
2023-03-16T12:04:08.281Z,12.71
2023-03-16T12:06:53.343Z,12.96
2023-03-16T12:09:53.199Z,13.03
2023-03-16T12:12:39.117Z,12.95
2023-03-16T12:15:24.336Z,12.88
2023-03-16T12:17:58.700Z,12.79
2023-03-16T12:20:33.955Z,12.69
2023-03-16T12:23:09.768Z,12.63
2023-03-16T12:25:45.514Z,12.67
2023-03-16T12:28:24.839Z,12.67
2023-03-16T12:31:09.412Z,12.72
2023-03-16T12:33:54.345Z,12.87
2023-03-16T12:36:49.956Z,13.19
2023-03-16T12:39:32.891Z,13.41
2023-03-16T12:42:15.817Z,13.61
2023-03-16T12:44:51.670Z,13.81
2023-03-16T12:47:31.382Z,14.04
2023-03-16T12:50:09.417Z,14.35
2023-03-16T12:52:45.376Z,14.71
2023-03-16T12:55:21.040Z,14.97
2023-03-16T12:57:59.844Z,15.25
2023-03-16T13:00:37.846Z,15.61
2023-03-16T13:03:18.111Z,15.78
2023-03-16T13:05:52.205Z,15.75
2023-03-16T13:08:24.026Z,15.88
2023-03-16T13:11:06.448Z,16.12
2023-03-16T13:13:50.411Z,16.14
2023-03-16T13:16:29.511Z,15.91
2023-03-16T13:19:01.057Z,15.79
2023-03-16T13:21:42.730Z,15.87
2023-03-16T13:24:36.845Z,15.61
2023-03-16T13:27:16.780Z,15.77
2023-03-16T13:29:56.513Z,15.89
2023-03-16T13:32:31.437Z,16.05
2023-03-16T13:35:06.241Z,16.05
2023-03-16T13:37:37.037Z,16.16
2023-03-16T13:40:21.433Z,16.22
2023-03-16T13:42:55.341Z,16.31
2023-03-16T13:45:30.262Z,16.49
2023-03-16T13:48:01.782Z,16.49
2023-03-16T13:50:36.201Z,16.24
2023-03-16T13:53:12.968Z,16.11
2023-03-16T13:55:48.677Z,16.02
2023-03-16T13:58:26.489Z,15.71
2023-03-16T14:01:00.548Z,15.39
2023-03-16T14:03:37.074Z,15.05
2023-03-16T14:06:20.048Z,14.87
2023-03-16T14:08:53.902Z,14.67
2023-03-16T14:11:24.669Z,14.68
2023-03-16T14:13:56.736Z,14.72
2023-03-16T14:16:29.831Z,14.69
2023-03-16T14:19:05.067Z,14.63
2023-03-16T14:21:36.218Z,14.56
2023-03-16T14:24:17.066Z,14.61
2023-03-16T14:26:49.358Z,14.61
2023-03-16T14:29:24.969Z,14.54
2023-03-16T14:31:56.360Z,14.47
2023-03-16T14:34:32.640Z,14.41
2023-03-16T14:37:11.929Z,14.30
2023-03-16T14:39:43.546Z,14.22
2023-03-16T14:42:27.583Z,14.28
2023-03-16T14:44:59.959Z,14.36
2023-03-16T14:47:33.014Z,14.34
2023-03-16T14:50:08.015Z,14.32
2023-03-16T14:52:39.513Z,14.45
2023-03-16T14:55:16.942Z,14.55
2023-03-16T14:57:49.316Z,14.56
2023-03-16T15:00:22.366Z,14.55
2023-03-16T15:03:00.842Z,14.55
2023-03-16T15:05:37.648Z,14.42
2023-03-16T15:08:15.777Z,14.34
2023-03-16T15:10:47.419Z,14.37
2023-03-16T15:13:34.796Z,14.31
2023-03-16T15:16:06.313Z,14.26
2023-03-16T15:18:37.834Z,14.21
2023-03-16T15:21:13.401Z,14.18
2023-03-16T15:23:45.085Z,14.23
2023-03-16T15:26:19.265Z,14.24
2023-03-16T15:28:49.958Z,14.15
2023-03-16T15:31:23.540Z,14.04
2023-03-16T15:33:58.466Z,13.86
2023-03-16T15:36:32.056Z,13.82
2023-03-16T15:39:08.360Z,13.72
2023-03-16T15:41:47.431Z,13.54
2023-03-16T15:44:18.535Z,13.43
2023-03-16T15:46:49.225Z,13.41
2023-03-16T15:49:19.973Z,13.34
2023-03-16T15:51:51.070Z,13.27
2023-03-16T15:54:22.150Z,13.16
2023-03-16T15:56:54.764Z,13.01
2023-03-16T15:59:27.188Z,12.87
2023-03-16T16:01:57.891Z,12.70
2023-03-16T16:04:28.798Z,12.58
2023-03-16T16:07:02.196Z,12.45
2023-03-16T16:09:35.394Z,12.36
2023-03-16T16:12:06.842Z,12.30
2023-03-16T16:14:37.555Z,12.23
2023-03-16T16:17:15.821Z,12.12
2023-03-16T16:19:46.537Z,12.01
2023-03-16T16:22:17.566Z,11.91
2023-03-16T16:24:48.659Z,11.80
2023-03-16T16:27:19.566Z,11.71
2023-03-16T16:29:50.570Z,11.60
2023-03-16T16:32:29.839Z,11.47
2023-03-16T16:35:04.596Z,11.35
2023-03-16T16:37:35.567Z,11.23
2023-03-16T16:40:07.442Z,11.12
2023-03-16T16:42:37.913Z,11.02
2023-03-16T16:45:14.694Z,10.93
2023-03-16T16:47:45.476Z,10.82
2023-03-16T16:50:22.749Z,10.73
2023-03-16T16:52:55.279Z,10.63
2023-03-16T16:55:27.653Z,10.54
2023-03-16T16:57:58.603Z,10.46
2023-03-16T17:00:30.007Z,10.37
2023-03-16T17:02:58.994Z,10.28
2023-03-16T17:05:31.700Z,10.21
2023-03-16T17:08:04.312Z,10.12
2023-03-16T17:10:35.571Z,10.04
2023-03-16T17:13:07.520Z,9.96
2023-03-16T17:15:38.253Z,9.87
2023-03-16T17:18:14.061Z,9.80
2023-03-16T17:20:45.051Z,9.73
2023-03-16T17:23:29.730Z,9.66
2023-03-16T17:26:02.901Z,9.59
2023-03-16T17:28:38.725Z,9.51
2023-03-16T17:31:09.630Z,9.44
2023-03-16T17:33:40.274Z,9.38
2023-03-16T17:36:15.443Z,9.31
2023-03-16T17:38:46.513Z,9.25
2023-03-16T17:41:25.747Z,9.20
2023-03-16T17:43:58.478Z,9.15
2023-03-16T17:46:31.555Z,9.09
2023-03-16T17:49:12.213Z,9.06
2023-03-16T17:51:44.049Z,9.02
2023-03-16T17:54:15.016Z,8.97
2023-03-16T17:56:46.614Z,8.93
2023-03-16T17:59:20.004Z,8.88
2023-03-16T18:01:51.309Z,8.83
2023-03-16T18:04:21.528Z,8.79
2023-03-16T18:06:52.807Z,8.74
2023-03-16T18:09:23.376Z,8.67
2023-03-16T18:11:54.297Z,8.62
2023-03-16T18:14:35.284Z,8.60
2023-03-16T18:17:27.844Z,8.60
2023-03-16T18:19:59.065Z,8.60
2023-03-16T18:22:29.900Z,8.59
2023-03-16T18:25:02.045Z,8.58
2023-03-16T18:27:32.847Z,8.59
2023-03-16T18:30:03.615Z,8.61
2023-03-16T18:32:34.301Z,8.61
2023-03-16T18:35:05.615Z,8.61
2023-03-16T18:37:34.958Z,8.60
2023-03-16T18:40:06.621Z,8.59
2023-03-16T18:42:37.277Z,8.61
2023-03-16T18:45:11.675Z,8.59
2023-03-16T18:47:45.685Z,8.59
2023-03-16T18:50:30.236Z,8.59
2023-03-16T18:53:00.777Z,8.57
2023-03-16T18:55:32.663Z,8.57
2023-03-16T18:58:03.228Z,8.54
2023-03-16T19:00:35.273Z,8.52
2023-03-16T19:03:09.128Z,8.52
2023-03-16T19:05:40.768Z,8.52
2023-03-16T19:08:14.432Z,8.52
2023-03-16T19:10:49.977Z,8.50
2023-03-16T19:13:24.745Z,8.50
2023-03-16T19:15:57.841Z,8.51
2023-03-16T19:18:29.357Z,8.51
2023-03-16T19:20:58.436Z,8.52
2023-03-16T19:23:32.547Z,8.51
2023-03-16T19:26:03.550Z,8.50
2023-03-16T19:28:36.782Z,8.50
2023-03-16T19:31:18.014Z,8.49
2023-03-16T19:33:49.792Z,8.48
2023-03-16T19:36:23.344Z,8.45
2023-03-16T19:38:54.815Z,8.44
2023-03-16T19:41:26.865Z,8.44
2023-03-16T19:44:03.647Z,8.42
2023-03-16T19:46:34.417Z,8.42
2023-03-16T19:49:08.731Z,8.42
2023-03-16T19:51:39.427Z,8.41
2023-03-16T19:54:12.979Z,8.42
2023-03-16T19:56:43.630Z,8.42
2023-03-16T19:59:14.608Z,8.42
2023-03-16T20:01:46.072Z,8.41
2023-03-16T20:04:21.764Z,8.41
2023-03-16T20:06:53.613Z,8.40
2023-03-16T20:09:24.429Z,8.39
2023-03-16T20:11:54.935Z,8.39
2023-03-16T20:14:32.436Z,8.41
2023-03-16T20:17:03.251Z,8.38
2023-03-16T20:19:34.271Z,8.37
2023-03-16T20:22:07.485Z,8.34
2023-03-16T20:24:38.677Z,8.35
2023-03-16T20:27:12.695Z,8.33
2023-03-16T20:29:43.871Z,8.31
2023-03-16T20:32:20.633Z,8.30
2023-03-16T20:34:53.669Z,8.31
2023-03-16T20:37:27.087Z,8.30
2023-03-16T20:39:59.308Z,8.28
2023-03-16T20:42:32.801Z,8.26
2023-03-16T20:45:06.136Z,8.27
2023-03-16T20:47:37.057Z,8.27
2023-03-16T20:50:18.005Z,8.28
2023-03-16T20:52:49.147Z,8.28
2023-03-16T20:55:22.692Z,8.28
2023-03-16T20:57:55.405Z,8.26
2023-03-16T21:00:33.374Z,8.25
2023-03-16T21:03:07.789Z,8.24
2023-03-16T21:05:38.591Z,8.21
2023-03-16T21:08:12.751Z,8.20
2023-03-16T21:10:43.753Z,8.19
2023-03-16T21:13:21.951Z,8.19
2023-03-16T21:15:53.129Z,8.21
2023-03-16T21:18:24.038Z,8.23
2023-03-16T21:20:56.332Z,8.24
2023-03-16T21:23:27.086Z,8.27
2023-03-16T21:26:00.775Z,8.27
2023-03-16T21:28:33.830Z,8.28
2023-03-16T21:31:06.817Z,8.27
2023-03-16T21:33:39.969Z,8.26
2023-03-16T21:36:17.137Z,8.26
2023-03-16T21:38:48.978Z,8.28
2023-03-16T21:41:20.401Z,8.27
2023-03-16T21:43:50.192Z,8.28
2023-03-16T21:46:22.884Z,8.30
2023-03-16T21:48:56.268Z,8.32
2023-03-16T21:51:31.435Z,8.34
2023-03-16T21:54:02.371Z,8.38
2023-03-16T21:56:33.027Z,8.41
2023-03-16T21:59:03.723Z,8.45
2023-03-16T22:01:42.848Z,8.46
2023-03-16T22:04:21.670Z,8.49
2023-03-16T22:06:52.378Z,8.49
2023-03-16T22:09:25.008Z,8.46
2023-03-16T22:11:56.052Z,8.42
2023-03-16T22:14:27.238Z,8.38
2023-03-16T22:16:57.027Z,8.37
2023-03-16T22:19:28.376Z,8.37
2023-03-16T22:21:57.716Z,8.35
2023-03-16T22:24:30.496Z,8.37
2023-03-16T22:27:01.594Z,8.37
2023-03-16T22:29:34.044Z,8.36
2023-03-16T22:32:08.584Z,8.36
2023-03-16T22:34:45.016Z,8.35
2023-03-16T22:37:20.369Z,8.35
2023-03-16T22:39:52.054Z,8.34
2023-03-16T22:42:32.843Z,8.35
2023-03-16T22:45:03.469Z,8.38
2023-03-16T22:47:35.240Z,8.37
2023-03-16T22:50:07.391Z,8.34
2023-03-16T22:52:38.800Z,8.35
2023-03-16T22:55:09.103Z,8.34
2023-03-16T22:57:39.567Z,8.34
2023-03-16T23:00:14.524Z,8.33
2023-03-16T23:02:44.907Z,8.31
2023-03-16T23:05:24.358Z,8.32
2023-03-16T23:07:55.567Z,8.30
2023-03-16T23:10:29.648Z,8.28
2023-03-16T23:13:02.232Z,8.27
2023-03-16T23:15:33.341Z,8.26
2023-03-16T23:18:03.920Z,8.23
2023-03-16T23:20:34.663Z,8.20
2023-03-16T23:23:05.604Z,8.17
2023-03-16T23:25:37.705Z,8.14
2023-03-16T23:28:08.977Z,8.12
2023-03-16T23:30:39.839Z,8.09
2023-03-16T23:33:13.320Z,8.10
2023-03-16T23:35:46.518Z,8.09
2023-03-16T23:38:17.313Z,8.07
2023-03-16T23:40:49.477Z,8.06
2023-03-16T23:43:20.234Z,8.03
2023-03-16T23:45:51.253Z,8.01
2023-03-16T23:48:23.632Z,7.99
2023-03-16T23:50:57.328Z,7.95
2023-03-16T23:53:27.951Z,7.92
2023-03-16T23:55:58.846Z,7.89
2023-03-16T23:58:29.342Z,7.87
